Gytsjerk, Netherlands
Current Conditions -  °F | °C
As of 8:09 AM on Thursday 23 Oct 2014 (Local Time) from EHLW Reporting Station
Haze Haze  
Wind Chill: 52°   Ceiling: 2200
Heat Index: 52°   Visibility: 5mi
Dew Point: 52°   Wind: 6mph
Humidity: 100%   Direction: 200°SSW
Pressure: 30.09"   Gusts: NA
Location:  53.24°N, 5.9°E
Report Text: EHLW 230609Z AUTO 20005KT 8000 BR OVC022 11/11 Q1019 WHT 21007KT 9999 BKN020
Loading
Personal Weather Stations






























Interactive Weather Map
Tropical Storm Tracking
New forecast layout! Learn more

10-Day Weather Forecast

Advertisements
Track Severe Weather on mobile